KAFW/AFW METAR and TAF weather

Enter ICAO airport designator
Station Type Date Time Source
KAFW METAR 2019/06/26 09:53 UTC NOAA

KAFW 260953Z 17008KT 10SM FEW250 22/19 A3004 RMK AO2 SLP156 T02220189


Station Type Date Time Source
KAFW Decoded METAR 2019/06/26 09:53 UTC NOAA

FORT WORTH ALLIANCE AIRPORT, TX, United States (KAFW) 32-59N 097-19W 233M
Jun 26, 2019 - 05:53 AM EDT / 2019.06.26 0953 UTC
Wind: from the S (170 degrees) at 9 MPH (8 KT):0
Visibility: 10 mile(s):0
Sky conditions: mostly clear
Temperature: 72.0 F (22.2 C)
Dew Point: 66.0 F (18.9 C)
Relative Humidity: 81%
Pressure (altimeter): 30.04 in. Hg (1017 hPa)
ob: KAFW 260953Z 17008KT 10SM FEW250 22/19 A3004 RMK AO2 SLP156 T02220189
cycle: 10

Station Type Date Time Source
KAFW TAF 2019/06/26 09:58 UTC NOAA

TAF
AMD KAFW 260856Z 2609/2706 18012KT P6SM SCT250
FM262000 18012KT P6SM VCTS SCT040CB BKN100
FM270000 17014KT P6SM FEW040

Example: see airport list